Time;durP1;ratioP1;P1;durP2;ratioP2;P2;SDS_P1;SDS_P2;PMS_P1;PMS_P2;Temp;Humidity;BMP_temperature;BMP_pressure;BME280_temperature;BME280_humidity;BME280_pressure;Samples;Min_cycle;Max_cycle;Signal;HPM_P1;HPM_P2
2022/05/05 00:00:58;;;;;;;6.15;5.05;;;;;;;12.79;82.99;96378.50;5005881;28;20049;-79
2022/05/05 00:03:26;;;;;;;6.75;4.70;;;;;;;12.78;83.11;96371.41;5004797;28;20057;-79
2022/05/05 00:05:52;;;;;;;6.53;5.22;;;;;;;12.78;82.79;96374.13;5005690;28;20053;-78
2022/05/05 00:08:19;;;;;;;7.47;5.25;;;;;;;12.82;83.06;96368.03;5004587;28;20052;-79
2022/05/05 00:16:14;;;;;;;8.15;5.10;;;;;;;12.77;82.33;96378.00;5005016;28;20053;-80
2022/05/05 00:18:42;;;;;;;7.15;5.15;;;;;;;12.81;81.98;96375.44;5006072;28;20056;-78
2022/05/05 00:21:08;;;;;;;5.93;4.95;;;;;;;12.86;82.22;96371.69;5004827;28;20511;-81
2022/05/05 00:23:35;;;;;;;8.90;5.18;;;;;;;12.87;82.64;96376.03;5006032;28;20125;-79
2022/05/05 00:26:01;;;;;;;6.70;4.88;;;;;;;12.90;82.70;96361.72;5004460;28;20056;-77
2022/05/05 00:28:28;;;;;;;7.53;5.43;;;;;;;12.93;82.96;96374.69;5006163;28;20497;-80
2022/05/05 00:30:54;;;;;;;8.60;4.82;;;;;;;12.97;82.89;96364.72;5005678;28;20041;-79
2022/05/05 00:33:21;;;;;;;6.15;4.60;;;;;;;12.96;82.68;96366.66;5005660;28;20054;-79
2022/05/05 00:35:48;;;;;;;7.55;5.25;;;;;;;13.00;82.54;96369.53;5005069;28;20049;-78
2022/05/05 00:38:15;;;;;;;7.72;5.15;;;;;;;12.98;82.18;96371.75;5005116;28;20049;-79
2022/05/05 00:40:43;;;;;;;436.85;344.13;;;;;;;12.99;82.13;96379.63;5005399;28;20041;-79
2022/05/05 00:43:10;;;;;;;7.07;4.65;;;;;;;12.96;81.81;96379.50;5004270;28;20141;-80
2022/05/05 00:45:37;;;;;;;9.57;5.43;;;;;;;12.93;82.04;96374.69;5005515;28;20046;-79
2022/05/05 00:48:05;;;;;;;6.60;5.10;;;;;;;12.94;81.92;96376.28;5005061;28;20054;-79
2022/05/05 00:50:33;;;;;;;8.48;5.63;;;;;;;12.95;81.95;96369.72;5005823;28;20069;-79
2022/05/05 00:53:01;;;;;;;8.85;5.28;;;;;;;12.98;81.67;96377.22;5005279;28;20129;-79
2022/05/05 00:55:28;;;;;;;7.90;5.68;;;;;;;12.99;81.70;96373.38;5005439;28;20054;-79
2022/05/05 00:57:55;;;;;;;8.55;5.53;;;;;;;13.00;82.18;96366.78;5004973;28;20456;-80
2022/05/05 01:00:22;;;;;;;7.03;5.18;;;;;;;13.01;82.49;96371.91;5004942;28;20054;-79
2022/05/05 01:02:50;;;;;;;7.40;5.13;;;;;;;13.01;82.16;96376.59;5006501;28;20068;-79
2022/05/05 01:05:17;;;;;;;6.28;4.90;;;;;;;12.96;81.64;96374.03;5008382;28;20125;-79
2022/05/05 01:07:44;;;;;;;6.55;5.20;;;;;;;12.94;81.69;96370.81;5009418;28;20054;-78
2022/05/05 01:10:13;;;;;;;6.97;5.25;;;;;;;12.98;81.55;96372.56;5008239;28;20504;-78
2022/05/05 01:12:39;;;;;;;6.50;5.25;;;;;;;12.98;81.37;96374.50;5009315;28;20050;-79
2022/05/05 01:15:07;;;;;;;8.20;6.00;;;;;;;12.96;81.56;96369.38;5008003;28;20042;-79
2022/05/05 01:17:33;;;;;;;6.97;5.20;;;;;;;12.97;81.31;96373.69;5009420;28;20053;-80
2022/05/05 01:20:10;;;;;;;7.32;4.60;;;;;;;12.98;81.29;96371.75;5008217;28;20046;-79
2022/05/05 01:22:37;;;;;;;6.80;4.90;;;;;;;13.00;81.61;96366.78;5008311;28;20076;-79
2022/05/05 01:30:33;;;;;;;6.95;4.95;;;;;;;12.97;81.39;96375.63;5008785;28;20053;-80
2022/05/05 01:33:00;;;;;;;6.25;4.45;;;;;;;12.96;81.30;96368.56;5008308;28;20046;-79
2022/05/05 01:35:26;;;;;;;6.03;4.55;;;;;;;12.94;80.81;96365.34;5008727;28;20827;-78
2022/05/05 01:37:54;;;;;;;6.13;4.40;;;;;;;12.94;80.72;96370.81;5007938;28;20567;-79
2022/05/05 01:40:20;;;;;;;4.93;4.00;;;;;;;12.95;80.46;96366.97;5008093;28;20053;-78
2022/05/05 01:42:47;;;;;;;6.00;4.65;;;;;;;12.94;80.10;96371.63;5007763;28;20046;-78
2022/05/05 01:45:13;;;;;;;5.63;4.47;;;;;;;12.91;80.41;96366.84;5007353;28;20205;-79
2022/05/05 01:47:40;;;;;;;6.78;5.00;;;;;;;12.92;80.45;96373.09;5008082;28;20054;-79
2022/05/05 01:50:07;;;;;;;7.05;4.60;;;;;;;12.90;80.84;96364.44;5007217;28;20049;-78
2022/05/05 01:52:34;;;;;;;7.22;4.53;;;;;;;12.94;81.49;96376.28;5008333;28;20050;-79
2022/05/05 01:55:02;;;;;;;6.90;4.85;;;;;;;12.96;81.23;96368.56;5007776;28;20058;-80
2022/05/05 01:57:28;;;;;;;6.13;4.22;;;;;;;12.95;80.97;96377.91;5008002;28;20046;-79
2022/05/05 01:59:55;;;;;;;7.05;4.13;;;;;;;12.95;81.15;96362.31;5007596;28;20049;-78
2022/05/05 02:02:21;;;;;;;6.78;4.53;;;;;;;12.96;81.25;96371.31;5007790;28;20153;-78
2022/05/05 02:04:48;;;;;;;7.43;4.40;;;;;;;12.95;81.25;96364.25;5007713;28;20049;-79
2022/05/05 02:07:14;;;;;;;4.95;3.70;;;;;;;12.95;81.15;96364.25;5007145;28;20053;-78
2022/05/05 02:09:41;;;;;;;5.53;3.85;;;;;;;12.96;80.73;96363.13;5007600;28;20056;-79
2022/05/05 02:12:10;;;;;;;4.95;3.50;;;;;;;12.94;80.32;96371.63;5007205;28;20049;-79
2022/05/05 02:14:36;;;;;;;4.30;3.60;;;;;;;12.95;80.41;96372.44;5006947;28;20053;-79
2022/05/05 02:17:03;;;;;;;4.78;3.50;;;;;;;12.90;80.26;96375.38;5006607;28;20053;-78
2022/05/05 02:19:30;;;;;;;4.78;3.40;;;;;;;12.86;79.52;96382.63;5008256;28;20072;-79
2022/05/05 02:21:56;;;;;;;4.63;3.60;;;;;;;12.72;79.23;96383.66;5007132;28;20053;-78
2022/05/05 02:24:23;;;;;;;5.40;3.50;;;;;;;12.66;79.32;96386.94;5007433;28;20456;-78
2022/05/05 02:26:49;;;;;;;5.00;3.38;;;;;;;12.61;79.25;96385.19;5006937;28;20143;-78
2022/05/05 02:29:17;;;;;;;4.70;3.55;;;;;;;12.60;79.19;96383.59;5007151;28;20053;-80
2022/05/05 02:31:43;;;;;;;5.05;3.85;;;;;;;12.57;80.03;96386.16;5007431;28;20038;-79
2022/05/05 02:34:10;;;;;;;4.97;3.95;;;;;;;12.54;80.10;96384.91;5006999;28;20822;-79
2022/05/05 02:39:21;;;;;;;4.05;3.40;;;;;;;12.51;80.54;96377.38;5006621;28;20103;-78
2022/05/05 02:41:47;;;;;;;7.22;3.28;;;;;;;12.50;80.51;96373.03;5007456;28;20381;-79
2022/05/05 02:44:14;;;;;;;4.40;3.33;;;;;;;12.45;80.07;96375.97;5005868;28;20115;-80
2022/05/05 02:46:41;;;;;;;5.43;3.25;;;;;;;12.42;80.45;96371.94;5007099;28;20045;-80
2022/05/05 02:49:09;;;;;;;5.45;3.55;;;;;;;12.40;80.76;96373.41;5006151;28;20483;-77
2022/05/05 02:51:36;;;;;;;4.40;3.67;;;;;;;12.38;80.88;96373.75;5007138;28;20068;-78
2022/05/05 02:56:46;;;;;;;7.05;4.15;;;;;;;12.36;81.10;96378.72;5006585;28;20100;-81
2022/05/05 02:59:13;;;;;;;6.32;3.80;;;;;;;12.37;81.29;96385.81;5006736;28;20045;-78
2022/05/05 03:01:40;;;;;;;6.10;3.17;;;;;;;12.35;81.05;96381.78;5006234;28;20081;-78
2022/05/05 03:04:08;;;;;;;4.10;3.45;;;;;;;12.32;79.99;96387.91;5006769;28;20621;-79
2022/05/05 03:06:34;;;;;;;4.50;3.22;;;;;;;12.27;80.11;96391.63;5006161;28;20730;-80
2022/05/05 03:09:01;;;;;;;4.90;3.30;;;;;;;12.27;79.87;96395.16;5007082;28;20428;-78
2022/05/05 03:11:27;;;;;;;6.00;3.35;;;;;;;12.26;79.47;96385.34;5005968;28;20054;-78
2022/05/05 03:13:54;;;;;;;5.45;3.17;;;;;;;12.23;79.67;96386.03;5006686;28;20046;-78
2022/05/05 03:16:20;;;;;;;5.82;3.22;;;;;;;12.16;79.54;96385.75;5005762;28;20041;-78
2022/05/05 03:18:47;;;;;;;3.97;3.20;;;;;;;12.16;79.68;96391.19;5006374;28;20137;-77
2022/05/05 03:21:16;;;;;;;5.38;3.22;;;;;;;12.14;79.68;96387.97;5006497;28;20060;-77
2022/05/05 03:23:42;;;;;;;4.80;3.35;;;;;;;12.09;79.37;96385.41;5006151;28;20057;-79
2022/05/05 03:26:09;;;;;;;4.35;3.45;;;;;;;12.10;79.09;96389.75;5005382;28;20077;-80
2022/05/05 03:28:35;;;;;;;4.90;4.05;;;;;;;12.12;79.36;96390.25;5006036;28;20069;-78
2022/05/05 03:31:02;;;;;;;6.00;4.05;;;;;;;12.13;79.55;96402.75;5006690;28;20053;-79
2022/05/05 03:33:29;;;;;;;5.05;3.50;;;;;;;12.16;79.72;96396.66;5005921;28;20048;-79
2022/05/05 03:35:55;;;;;;;4.80;3.45;;;;;;;12.14;79.81;96407.09;5006454;28;20058;-78
2022/05/05 03:38:23;;;;;;;6.03;3.40;;;;;;;12.07;79.46;96404.06;5005892;28;20071;-78
2022/05/05 03:40:50;;;;;;;5.13;3.65;;;;;;;11.95;79.74;96396.56;5004478;28;20773;-79
2022/05/05 03:43:17;;;;;;;6.03;4.22;;;;;;;11.85;79.64;96401.53;5004088;28;20735;-78
2022/05/05 03:45:43;;;;;;;6.38;4.18;;;;;;;11.78;80.16;96396.56;5005551;28;20049;-78
2022/05/05 03:48:10;;;;;;;4.38;3.65;;;;;;;11.89;80.19;96399.78;5005819;28;20050;-78
2022/05/05 03:50:37;;;;;;;5.43;4.10;;;;;;;11.94;80.28;96400.41;5006174;28;20053;-78
2022/05/05 03:53:03;;;;;;;6.53;4.00;;;;;;;12.01;79.99;96402.66;5005800;28;20041;-78
2022/05/05 03:55:31;;;;;;;4.88;3.72;;;;;;;12.01;80.20;96405.38;5005463;28;20041;-78
2022/05/05 03:57:57;;;;;;;4.80;3.90;;;;;;;12.01;80.25;96411.63;5005683;28;20053;-77
2022/05/05 04:00:24;;;;;;;8.27;3.63;;;;;;;12.05;80.36;96411.75;5005079;28;20060;-78
2022/05/05 04:05:31;;;;;;;6.70;4.10;;;;;;;11.97;80.44;96418.06;5005572;28;20153;-78
2022/05/05 04:07:58;;;;;;;5.70;3.80;;;;;;;11.99;80.47;96421.25;5005136;28;20053;-77
2022/05/05 04:10:24;;;;;;;5.38;4.00;;;;;;;11.85;80.50;96428.81;5005511;28;20056;-79
2022/05/05 04:12:52;;;;;;;5.53;4.25;;;;;;;11.74;81.34;96428.34;5004949;28;20052;-79
2022/05/05 04:15:19;;;;;;;6.10;4.53;;;;;;;11.64;82.13;96423.22;5005564;28;20046;-77
2022/05/05 04:17:45;;;;;;;7.00;4.25;;;;;;;11.63;81.74;96416.94;5004992;28;20057;-78
2022/05/05 04:20:12;;;;;;;7.78;4.82;;;;;;;11.66;82.08;96421.78;5005660;28;20409;-78
2022/05/05 04:22:39;;;;;;;5.45;4.40;;;;;;;11.69;81.52;96415.69;5005596;28;20068;-77
2022/05/05 04:25:06;;;;;;;5.82;4.53;;;;;;;11.75;81.82;96421.78;5005198;28;20038;-78
2022/05/05 04:27:33;;;;;;;7.38;4.53;;;;;;;11.84;81.63;96416.31;5005498;28;20053;-78
2022/05/05 04:30:01;;;;;;;7.20;5.18;;;;;;;11.91;81.91;96411.19;5005320;28;20057;-78
2022/05/05 04:32:28;;;;;;;5.80;4.57;;;;;;;11.94;81.91;96405.06;5005617;28;20080;-79
2022/05/05 04:34:55;;;;;;;6.50;4.90;;;;;;;12.00;82.20;96403.75;5005291;28;20069;-78
2022/05/05 04:37:21;;;;;;;10.15;4.95;;;;;;;12.02;82.04;96396.06;5007418;28;20065;-78
2022/05/05 04:39:48;;;;;;;6.97;4.85;;;;;;;12.07;82.20;96404.06;5008997;28;20054;-78
2022/05/05 04:42:15;;;;;;;8.35;5.03;;;;;;;12.11;82.14;96399.56;5008907;28;20046;-78
2022/05/05 04:44:41;;;;;;;9.98;5.13;;;;;;;12.11;82.04;96406.91;5008613;28;20797;-78
2022/05/05 04:47:09;;;;;;;10.02;5.60;;;;;;;12.18;81.88;96405.31;5008812;28;20598;-78
2022/05/05 04:49:36;;;;;;;6.03;4.43;;;;;;;12.22;82.31;96408.19;5009011;28;20064;-77
2022/05/05 04:52:03;;;;;;;7.78;4.97;;;;;;;12.26;82.02;96412.66;5008689;28;20049;-80
2022/05/05 04:54:29;;;;;;;8.77;5.50;;;;;;;12.27;81.83;96417.00;5009183;28;20045;-78
2022/05/05 04:56:56;;;;;;;7.00;4.95;;;;;;;12.38;81.71;96424.84;5008651;28;20061;-79
2022/05/05 04:59:22;;;;;;;5.75;4.55;;;;;;;12.39;81.39;96426.44;5008803;28;20697;-78
2022/05/05 05:01:49;;;;;;;9.18;5.30;;;;;;;12.43;80.98;96422.72;5008581;28;20535;-77
2022/05/05 05:04:16;;;;;;;6.18;4.47;;;;;;;12.47;81.07;96423.66;5008621;28;20053;-78
2022/05/05 05:06:43;;;;;;;7.25;4.95;;;;;;;12.51;81.50;96430.06;5008230;28;20056;-77
2022/05/05 05:09:09;;;;;;;6.82;4.43;;;;;;;12.49;80.56;96439.72;5008547;28;20956;-78
2022/05/05 05:11:36;;;;;;;8.05;4.30;;;;;;;12.52;80.77;96447.25;5005423;28;20049;-80
2022/05/05 05:14:03;;;;;;;5.15;4.38;;;;;;;12.37;79.71;96447.78;5008468;28;20061;-80
2022/05/05 05:16:29;;;;;;;8.45;4.38;;;;;;;12.24;80.42;96442.22;5008469;28;20056;-79
2022/05/05 05:18:56;;;;;;;5.78;4.45;;;;;;;12.24;80.39;96438.69;5009033;28;20046;-78
2022/05/05 05:21:24;;;;;;;5.50;4.35;;;;;;;12.25;80.52;96443.00;5008961;28;20509;-77
2022/05/05 05:23:50;;;;;;;5.97;4.72;;;;;;;12.27;80.69;96451.69;5008277;28;20059;-77
2022/05/05 05:26:17;;;;;;;8.45;4.88;;;;;;;12.30;80.50;96450.22;5008264;28;20053;-79
2022/05/05 05:28:43;;;;;;;5.40;4.45;;;;;;;12.16;80.60;96445.78;5007874;28;20057;-78
2022/05/05 05:31:10;;;;;;;6.00;4.75;;;;;;;12.22;80.86;96444.47;5008118;28;20053;-77
2022/05/05 05:33:36;;;;;;;8.73;4.65;;;;;;;12.28;80.29;96437.72;5008131;28;20067;-80
2022/05/05 05:36:03;;;;;;;8.60;4.85;;;;;;;12.26;80.70;96437.22;5007957;28;20046;-77
2022/05/05 05:38:31;;;;;;;8.68;4.75;;;;;;;12.31;80.45;96438.19;5008022;28;20045;-78
2022/05/05 05:40:57;;;;;;;10.82;5.30;;;;;;;12.27;80.76;96438.84;5008207;28;20045;-79
2022/05/05 05:43:23;;;;;;;9.20;5.60;;;;;;;12.20;81.39;96435.78;5007997;28;20054;-77
2022/05/05 05:45:50;;;;;;;8.95;5.70;;;;;;;12.21;81.27;96431.94;5007730;28;20053;-77
2022/05/05 05:48:16;;;;;;;6.28;5.28;;;;;;;12.27;81.44;96430.66;5007468;28;20042;-81
2022/05/05 05:50:43;;;;;;;6.90;5.60;;;;;;;12.43;81.11;96433.66;5007590;28;20049;-78
2022/05/05 05:53:09;;;;;;;10.55;5.70;;;;;;;12.49;81.58;96439.72;5008058;28;20062;-77
2022/05/05 05:55:37;;;;;;;8.52;5.35;;;;;;;12.46;81.17;96443.91;5007380;28;20121;-78
2022/05/05 05:58:04;;;;;;;6.43;5.00;;;;;;;12.41;80.93;96437.81;5008134;28;20042;-78
2022/05/05 06:00:32;;;;;;;7.10;5.40;;;;;;;12.34;80.97;96440.25;5007267;28;20085;-78
2022/05/05 06:05:43;;;;;;;7.10;4.97;;;;;;;12.36;80.30;96454.38;5007431;28;20595;-78
2022/05/05 06:08:09;;;;;;;7.53;5.60;;;;;;;12.24;81.39;96458.59;5007199;28;20050;-80
2022/05/05 06:10:37;;;;;;;7.03;5.30;;;;;;;12.15;81.75;96462.47;5008322;28;20045;-78
2022/05/05 06:13:04;;;;;;;7.88;5.15;;;;;;;12.22;81.21;96460.88;5004121;28;20046;-78
2022/05/05 06:15:31;;;;;;;8.85;5.60;;;;;;;12.26;81.16;96461.78;5007881;28;20129;-78
2022/05/05 06:17:57;;;;;;;7.32;5.13;;;;;;;12.44;81.03;96467.22;5007076;28;20133;-76
2022/05/05 06:20:24;;;;;;;18.55;5.07;;;;;;;12.56;80.31;96458.31;5007365;28;20054;-79
2022/05/05 06:22:51;;;;;;;9.05;5.07;;;;;;;12.57;80.45;96458.00;5007303;28;20050;-77
2022/05/05 06:25:20;;;;;;;7.13;4.90;;;;;;;12.67;79.54;96460.34;5006955;28;20056;-75
2022/05/05 06:27:48;;;;;;;7.10;4.90;;;;;;;12.63;79.65;96464.06;5007677;28;20129;-77
2022/05/05 06:30:14;;;;;;;7.20;5.00;;;;;;;12.65;79.45;96468.09;5006617;28;20046;-76
2022/05/05 06:32:41;;;;;;;7.07;5.28;;;;;;;12.82;79.71;96469.94;5007693;28;20754;-78
2022/05/05 06:35:09;;;;;;;7.97;5.70;;;;;;;12.79;79.59;96473.34;5007058;28;20061;-78
2022/05/05 06:37:36;;;;;;;6.32;4.88;;;;;;;12.80;78.88;96469.47;5007729;28;20053;-78
2022/05/05 06:40:02;;;;;;;6.65;4.75;;;;;;;12.89;78.78;96462.00;5006379;28;20046;-76
2022/05/05 06:42:29;;;;;;;8.52;6.07;;;;;;;12.89;78.04;96466.69;5007275;28;20045;-76
2022/05/05 06:44:57;;;;;;;9.50;5.78;;;;;;;12.74;78.05;96477.06;5007090;28;20065;-75
2022/05/05 06:47:24;;;;;;;8.48;6.20;;;;;;;12.67;78.77;96482.22;5006455;28;20057;-75
2022/05/05 06:49:50;;;;;;;8.70;6.60;;;;;;;12.87;79.30;96485.34;5006263;28;20049;-76
2022/05/05 06:52:17;;;;;;;11.25;6.03;;;;;;;13.05;79.21;96481.41;5006484;28;20049;-76
2022/05/05 06:54:43;;;;;;;9.18;6.30;;;;;;;13.10;78.67;96478.44;5007877;28;20068;-75
2022/05/05 06:57:10;;;;;;;10.18;6.20;;;;;;;13.32;78.11;96480.94;5006074;28;20049;-75
2022/05/05 06:59:37;;;;;;;8.18;6.10;;;;;;;13.50;77.81;96489.00;5007361;28;20085;-75
2022/05/05 07:02:05;;;;;;;10.20;7.50;;;;;;;13.53;77.82;96483.69;5005791;28;20425;-76
2022/05/05 07:07:17;;;;;;;10.30;7.38;;;;;;;13.69;76.72;96483.88;5006087;28;20089;-75
2022/05/05 07:12:32;;;;;;;10.85;7.38;;;;;;;13.94;76.24;96478.47;4999541;28;20056;-74
2022/05/05 07:15:00;;;;;;;12.43;8.27;;;;;;;13.97;73.90;96483.31;5006604;28;20068;-75
2022/05/05 07:17:27;;;;;;;11.80;8.50;;;;;;;14.16;74.42;96482.81;5006807;28;20511;-75
2022/05/05 07:19:55;;;;;;;9.88;7.20;;;;;;;14.29;74.22;96490.69;5006130;28;20042;-75
2022/05/05 07:22:21;;;;;;;12.80;7.07;;;;;;;14.36;74.07;96485.47;5006469;28;20102;-75
2022/05/05 07:24:48;;;;;;;11.45;7.22;;;;;;;14.40;72.48;96495.75;5005863;28;20584;-76
2022/05/05 07:27:15;;;;;;;10.23;7.45;;;;;;;14.44;72.47;96485.72;5005943;28;20049;-76
2022/05/05 07:29:41;;;;;;;11.88;7.32;;;;;;;14.49;72.91;96485.53;5006331;28;20054;-76
2022/05/05 07:32:09;;;;;;;10.45;7.63;;;;;;;14.44;72.44;96497.47;5005877;28;20145;-76
2022/05/05 07:34:38;;;;;;;8.73;7.50;;;;;;;14.56;71.78;96488.50;5006419;28;20045;-76
2022/05/05 07:37:05;;;;;;;11.85;8.02;;;;;;;14.65;70.47;96494.69;5005006;28;20563;-75
2022/05/05 07:39:32;;;;;;;12.65;8.30;;;;;;;14.76;71.86;96490.34;5006899;28;20062;-76
2022/05/05 07:41:58;;;;;;;9.73;7.72;;;;;;;14.98;73.93;96494.63;5005322;28;20508;-75
2022/05/05 07:44:24;;;;;;;9.32;7.63;;;;;;;15.21;69.17;96503.16;5006138;28;20052;-75
2022/05/05 07:46:51;;;;;;;10.65;7.50;;;;;;;15.99;70.21;96504.75;5005242;28;20049;-76
2022/05/05 07:49:19;;;;;;;7.32;6.53;;;;;;;17.24;64.22;96510.75;5005688;28;20050;-76
2022/05/05 07:51:50;;;;;;;8.90;6.32;;;;;;;18.08;60.16;96517.75;5005608;28;20108;-77
2022/05/05 07:57:01;;;;;;;15.52;6.38;;;;;;;18.37;57.17;96528.16;5005996;28;20057;-76
2022/05/05 07:59:27;;;;;;;8.32;6.63;;;;;;;18.96;55.65;96524.16;5005085;28;20057;-77
2022/05/05 08:01:54;;;;;;;9.63;6.15;;;;;;;19.02;55.88;96530.97;5005897;28;20072;-75
2022/05/05 08:04:20;;;;;;;8.20;7.00;;;;;;;19.58;59.20;96523.19;5004442;28;20571;-77
2022/05/05 08:06:48;;;;;;;10.15;6.57;;;;;;;20.56;54.25;96520.13;5005579;28;20045;-76
2022/05/05 08:09:15;;;;;;;7.30;5.70;;;;;;;21.51;50.54;96526.94;5004581;28;20041;-75
2022/05/05 08:11:42;;;;;;;11.80;6.15;;;;;;;22.03;49.08;96532.41;5004943;28;20053;-75
2022/05/05 08:14:08;;;;;;;7.05;5.53;;;;;;;22.45;47.04;96531.03;5005294;28;20099;-75
2022/05/05 08:16:35;;;;;;;7.05;5.68;;;;;;;22.62;46.63;96531.09;5005344;28;20141;-77
2022/05/05 08:19:02;;;;;;;7.47;5.88;;;;;;;22.58;43.46;96526.72;5005288;28;20056;-76
2022/05/05 08:21:28;;;;;;;8.38;6.32;;;;;;;22.84;48.32;96528.38;5004981;28;20061;-76
2022/05/05 08:29:21;;;;;;;7.28;6.10;;;;;;;22.52;45.40;96531.84;5005293;28;20061;-75
2022/05/05 08:31:47;;;;;;;9.68;5.93;;;;;;;22.44;45.64;96534.97;5004925;28;20056;-75
2022/05/05 08:34:14;;;;;;;9.82;6.10;;;;;;;22.32;43.86;96523.06;5004960;28;20069;-78
2022/05/05 08:36:40;;;;;;;7.43;5.72;;;;;;;22.20;42.29;96525.41;5004669;28;20053;-75
2022/05/05 08:39:08;;;;;;;6.35;5.30;;;;;;;22.13;44.94;96526.13;5004123;28;20061;-76
2022/05/05 08:41:35;;;;;;;6.35;5.05;;;;;;;22.01;47.87;96518.13;5005272;28;20088;-76
2022/05/05 08:44:01;;;;;;;9.10;5.70;;;;;;;22.04;46.57;96520.94;5004013;28;20695;-75
2022/05/05 08:46:29;;;;;;;8.27;5.65;;;;;;;21.85;43.76;96521.22;5005213;28;20046;-75
2022/05/05 08:49:02;;;;;;;7.75;5.80;;;;;;;21.86;48.17;96525.56;5004593;28;20045;-76
2022/05/05 08:51:35;;;;;;;6.40;5.15;;;;;;;22.04;45.17;96522.91;5004388;28;20038;-76
2022/05/05 08:54:06;;;;;;;6.90;6.05;;;;;;;21.97;44.85;96518.09;5004510;28;20452;-75
2022/05/05 08:56:34;;;;;;;8.63;6.28;;;;;;;21.79;45.82;96517.22;5005072;28;20042;-75
2022/05/05 08:59:02;;;;;;;8.27;6.20;;;;;;;21.53;45.61;96527.34;5005322;28;20420;-75
2022/05/05 09:01:36;;;;;;;9.18;6.55;;;;;;;21.26;46.41;96542.56;5004076;28;20078;-76
2022/05/05 09:04:04;;;;;;;8.32;6.72;;;;;;;21.04;48.05;96534.06;5005112;28;20042;-77
2022/05/05 09:06:42;;;;;;;9.20;6.57;;;;;;;20.85;48.99;96531.50;5003955;28;20053;-77
2022/05/05 09:09:23;;;;;;;10.65;6.55;;;;;;;20.70;51.90;96530.56;5004642;28;20078;-76
2022/05/05 09:14:48;;;;;;;11.55;7.47;;;;;;;20.24;48.66;96535.53;5114139;27;20414;-76
2022/05/05 09:17:16;;;;;;;9.02;7.20;;;;;;;20.13;49.48;96535.41;5102319;28;20148;-75
2022/05/05 09:19:45;;;;;;;10.55;7.43;;;;;;;19.93;48.04;96540.25;5102213;28;20101;-75
2022/05/05 09:22:13;;;;;;;9.13;7.28;;;;;;;19.89;50.28;96530.31;5102751;28;20405;-76
2022/05/05 09:24:44;;;;;;;10.40;7.97;;;;;;;19.89;53.88;96530.31;5102327;28;20052;-75
2022/05/05 09:27:19;;;;;;;9.13;7.95;;;;;;;20.02;55.01;96523.41;5101858;28;20052;-76
2022/05/05 09:30:00;;;;;;;9.25;7.57;;;;;;;20.04;52.47;96527.38;5092637;28;20051;-74
2022/05/05 09:32:28;;;;;;;9.30;8.30;;;;;;;20.00;52.12;96536.81;5093327;28;20124;-77
2022/05/05 09:35:00;;;;;;;11.40;8.05;;;;;;;19.92;51.03;96530.38;5102374;28;20052;-75
2022/05/05 09:37:27;;;;;;;12.45;8.20;;;;;;;20.11;52.75;96525.91;5101243;28;20565;-75
2022/05/05 09:39:58;;;;;;;8.52;6.88;;;;;;;20.22;52.19;96535.13;5102749;28;20055;-75
2022/05/05 09:42:38;;;;;;;11.07;6.97;;;;;;;20.35;51.51;96541.97;5101965;28;20387;-75
2022/05/05 09:45:20;;;;;;;10.70;8.15;;;;;;;20.27;52.24;96540.31;5102145;28;20751;-76
2022/05/05 09:47:50;;;;;;;9.40;8.30;;;;;;;20.27;51.39;96543.09;5102049;28;20056;-75
2022/05/05 09:50:19;;;;;;;11.60;8.43;;;;;;;20.12;48.81;96535.78;5101368;28;20131;-76
2022/05/05 09:58:19;;;;;;;9.10;7.47;;;;;;;19.46;50.08;96533.25;5101794;28;20139;-76
2022/05/05 10:00:55;;;;;;;9.05;6.57;;;;;;;19.42;49.23;96535.19;5101562;28;20066;-76
2022/05/05 10:06:20;;;;;;;7.68;6.10;;;;;;;19.52;47.82;96537.31;5101624;28;20050;-76
2022/05/05 10:08:51;;;;;;;9.85;6.38;;;;;;;19.52;48.48;96534.53;5101551;28;20054;-76
2022/05/05 10:11:19;;;;;;;8.30;6.13;;;;;;;19.60;47.77;96529.16;5098905;28;20063;-76
2022/05/05 10:13:47;;;;;;;7.60;5.28;;;;;;;19.75;50.36;96528.97;5101113;28;20051;-75
2022/05/05 10:16:15;;;;;;;7.22;5.40;;;;;;;19.96;50.39;96536.75;5101393;28;20058;-76
2022/05/05 10:18:43;;;;;;;8.50;5.97;;;;;;;20.12;45.88;96533.00;5101693;28;20478;-74
2022/05/05 10:21:15;;;;;;;7.47;5.75;;;;;;;20.27;48.36;96529.25;5101073;28;20052;-75
2022/05/05 10:23:55;;;;;;;5.43;3.70;;;;;;;20.31;43.70;96524.56;5101448;28;20448;-76
2022/05/05 10:26:23;;;;;;;7.35;5.20;;;;;;;20.47;46.14;96516.88;5086512;28;20062;-77
2022/05/05 10:28:50;;;;;;;9.27;5.68;;;;;;;20.66;50.96;96517.84;5088435;28;20055;-75
2022/05/05 10:31:46;;;;;;;6.30;5.28;;;;;;;20.95;46.36;96513.41;5087281;28;20059;-75
2022/05/05 10:34:18;;;;;;;7.03;5.18;;;;;;;21.13;46.30;96519.09;5087192;28;20058;-75
2022/05/05 10:36:59;;;;;;;6.15;4.93;;;;;;;21.13;46.83;96508.00;5087864;28;20055;-75
2022/05/05 10:39:27;;;;;;;11.57;6.85;;;;;;;20.86;44.57;96502.63;5086863;28;20454;-76
2022/05/05 10:42:15;;;;;;;8.23;5.07;;;;;;;20.81;46.17;96503.78;5087561;28;20094;-75
2022/05/05 10:45:03;;;;;;;9.45;6.35;;;;;;;20.95;46.49;96497.59;5087323;28;20109;-75
2022/05/05 10:48:16;;;;;;;7.85;6.18;;;;;;;20.99;47.55;96497.63;5087991;28;20559;-75
2022/05/05 10:50:53;;;;;;;7.75;5.68;;;;;;;21.29;48.21;96495.47;5087808;28;20036;-78
2022/05/05 10:53:32;;;;;;;14.48;8.15;;;;;;;21.37;49.83;96496.38;5086581;28;20415;-75
2022/05/05 10:56:00;;;;;;;11.50;7.32;;;;;;;21.40;47.20;96487.28;5087366;28;20062;-74
2022/05/05 10:58:59;;;;;;;9.15;6.10;;;;;;;21.17;46.32;96498.56;5086476;28;20074;-76
2022/05/05 11:01:25;;;;;;;9.93;6.15;;;;;;;20.98;45.68;96490.47;5086579;28;20051;-75
2022/05/05 11:04:25;;;;;;;12.20;6.38;;;;;;;21.01;48.96;96496.06;5087475;28;20063;-75
2022/05/05 11:07:31;;;;;;;7.68;5.80;;;;;;;21.19;47.45;96490.66;5086654;28;20483;-76
2022/05/05 11:10:02;;;;;;;9.88;6.40;;;;;;;21.44;47.80;96490.88;5087013;28;20036;-76
2022/05/05 11:12:33;;;;;;;7.18;5.22;;;;;;;21.40;44.42;96490.03;5086298;28;20044;-75
2022/05/05 11:23:26;;;;;;;10.60;7.07;;;;;;;21.42;44.21;96484.94;5086422;28;20101;-74
2022/05/05 11:25:56;;;;;;;9.20;6.38;;;;;;;21.60;46.15;96487.81;5086782;28;20048;-77
2022/05/05 11:28:23;;;;;;;10.60;6.53;;;;;;;21.52;45.58;96486.19;5086265;28;20131;-76
2022/05/05 11:30:50;;;;;;;13.32;6.63;;;;;;;21.47;44.48;96487.34;5086917;28;20964;-78
2022/05/05 11:33:20;;;;;;;8.57;5.60;;;;;;;21.46;43.02;96485.75;5085623;28;20426;-75
2022/05/05 11:35:58;;;;;;;11.70;6.65;;;;;;;21.43;43.97;96478.19;5086319;28;20144;-75
2022/05/05 11:38:28;;;;;;;6.88;6.05;;;;;;;21.25;43.29;96478.06;5085294;28;20458;-75
2022/05/05 11:41:03;;;;;;;6.97;5.70;;;;;;;21.13;44.53;96481.13;5086460;28;20138;-74
2022/05/05 11:46:16;;;;;;;9.68;6.88;;;;;;;20.97;45.89;96472.28;5065503;28;20056;-75
2022/05/05 11:48:43;;;;;;;9.10;6.70;;;;;;;21.02;46.35;96469.94;5066649;28;20513;-75
2022/05/05 11:51:09;;;;;;;7.53;6.20;;;;;;;21.26;47.66;96468.56;5064757;28;20135;-75
2022/05/05 11:53:36;;;;;;;7.20;6.13;;;;;;;21.45;46.20;96467.53;5066121;28;20056;-75
2022/05/05 11:56:04;;;;;;;8.43;7.20;;;;;;;21.65;46.30;96456.97;5065034;28;20118;-74
2022/05/05 12:04:03;;;;;;;8.55;7.05;;;;;;;21.67;43.72;96453.81;5065197;28;20048;-75
2022/05/05 12:06:31;;;;;;;8.48;7.35;;;;;;;21.65;44.01;96456.97;5065865;28;20056;-75
2022/05/05 12:08:59;;;;;;;7.88;6.78;;;;;;;21.66;44.76;96447.44;5065270;28;20132;-74
2022/05/05 12:11:29;;;;;;;10.45;6.78;;;;;;;21.66;44.33;96447.44;5065509;28;20048;-77
2022/05/05 12:14:00;;;;;;;8.25;6.97;;;;;;;21.79;46.10;96439.63;5064841;28;20057;-75
2022/05/05 12:16:32;;;;;;;9.38;6.68;;;;;;;21.73;44.65;96441.19;5064447;28;20052;-76
2022/05/05 12:18:59;;;;;;;9.13;6.30;;;;;;;21.78;44.67;96435.25;5065313;28;20556;-75
2022/05/05 12:21:26;;;;;;;11.30;6.30;;;;;;;21.85;44.64;96426.97;5064827;28;20414;-75
2022/05/05 12:23:58;;;;;;;9.35;6.85;;;;;;;21.92;45.51;96426.97;5065392;28;20139;-75
2022/05/05 12:26:30;;;;;;;8.05;6.75;;;;;;;21.95;45.52;96423.44;5064258;28;20051;-75
2022/05/05 12:28:57;;;;;;;10.55;6.55;;;;;;;21.96;44.01;96424.22;5065623;28;20126;-74
2022/05/05 12:31:25;;;;;;;8.25;5.82;;;;;;;21.98;45.72;96425.44;5064203;28;20052;-74
2022/05/05 12:33:52;;;;;;;10.40;5.80;;;;;;;21.83;45.63;96421.03;5065743;28;20074;-74
2022/05/05 12:36:19;;;;;;;6.75;5.80;;;;;;;21.89;42.87;96411.94;5064157;28;20048;-75
2022/05/05 12:38:45;;;;;;;6.72;5.25;;;;;;;21.97;45.18;96415.53;5065365;28;20063;-76
2022/05/05 12:41:12;;;;;;;7.95;6.72;;;;;;;21.93;43.30;96408.41;5064644;28;20052;-74